Terminal Aerodrome Forecast
Issued by NWS

Home | Current Version | Previous Version | Text Only | Print | Product List | Glossary On
Versions: 1 2 3 4 5 6 7 8 9 10 11 12 13
908
FTUS43 KPAH 250909 AAA
TAFCGI
TAF AMD
KCGI 250909Z 2509/2606 24006KT P6SM FEW120 BKN200
     FM251100 29009KT P6SM SCT200
     FM251500 34013KT P6SM SKC
     FM252300 33004KT P6SM SKC=

USA.gov is the U.S. government's official web portal to all federal, state and local government web resources and services.